createdAt,value
2019-04-05T00:01:19.459Z,13.10
2019-04-05T00:04:07.363Z,12.90
2019-04-05T00:06:55.186Z,13.20
2019-04-05T00:09:43.266Z,12.70
2019-04-05T00:12:19.421Z,12.60
2019-04-05T00:15:15.077Z,12.90
2019-04-05T00:17:50.774Z,12.80
2019-04-05T00:20:31.190Z,12.50
2019-04-05T00:23:11.422Z,13.00
2019-04-05T00:25:39.869Z,13.00
2019-04-05T00:28:08.304Z,12.80
2019-04-05T00:30:56.109Z,12.90
2019-04-05T00:33:24.541Z,12.80
2019-04-05T00:36:12.341Z,12.90
2019-04-05T00:39:00.119Z,13.50
2019-04-05T00:41:47.897Z,14.10
2019-04-05T00:44:35.677Z,13.80
2019-04-05T00:47:04.196Z,13.50
2019-04-05T00:49:45.318Z,13.50
2019-04-05T00:52:26.146Z,13.40
2019-04-05T00:54:54.598Z,13.40
2019-04-05T00:57:42.383Z,13.30
2019-04-05T01:00:30.169Z,13.50
2019-04-05T01:02:58.607Z,14.30
2019-04-05T01:05:46.824Z,13.70
2019-04-05T01:08:34.617Z,13.30
2019-04-05T01:11:22.695Z,12.90
2019-04-05T01:14:10.469Z,12.90
2019-04-05T01:16:38.917Z,13.30
2019-04-05T01:19:47.516Z,12.90
2019-04-05T01:22:35.842Z,12.60
2019-04-05T01:25:44.338Z,12.50
2019-04-05T01:28:32.198Z,12.70
2019-04-05T01:31:19.988Z,12.80
2019-04-05T01:34:07.859Z,12.90
2019-04-05T01:36:48.094Z,13.10
2019-04-05T01:39:29.073Z,13.00
2019-04-05T01:41:57.573Z,12.50
2019-04-05T01:44:45.372Z,12.60
2019-04-05T01:50:21.131Z,13.10
2019-04-05T01:53:08.901Z,13.10
2019-04-05T01:55:56.699Z,13.80
2019-04-05T01:58:44.503Z,14.30
2019-04-05T02:01:12.957Z,14.60
2019-04-05T02:04:00.814Z,14.20
2019-04-05T02:06:48.988Z,13.60
2019-04-05T02:09:37.398Z,14.20
2019-04-05T02:12:25.184Z,14.10
2019-04-05T02:15:33.751Z,13.60
2019-04-05T02:18:14.725Z,14.60
2019-04-05T02:20:55.649Z,14.70
2019-04-05T02:23:36.394Z,15.40
2019-04-05T02:26:17.253Z,15.70
2019-04-05T02:28:46.085Z,15.30
2019-04-05T02:31:34.221Z,14.50
2019-04-05T02:34:14.482Z,14.50
2019-04-05T02:36:42.905Z,14.70
2019-04-05T02:39:31.203Z,14.60
2019-04-05T02:42:39.729Z,15.30
2019-04-05T02:45:48.229Z,15.00
2019-04-05T02:48:56.737Z,15.10
2019-04-05T02:52:05.260Z,14.80
2019-04-05T02:55:13.799Z,14.50
2019-04-05T02:58:22.319Z,14.30
2019-04-05T03:01:10.120Z,14.20
2019-04-05T03:03:58.320Z,14.00
2019-04-05T03:06:46.188Z,14.80
2019-04-05T03:09:34.312Z,13.90
2019-04-05T03:12:22.259Z,13.70
2019-04-05T03:15:10.816Z,12.90
2019-04-05T03:17:59.017Z,12.50
2019-04-05T03:20:46.959Z,12.80
2019-04-05T03:23:55.570Z,12.70
2019-04-05T03:27:04.077Z,12.70
2019-04-05T03:30:12.608Z,12.50
2019-04-05T03:33:00.480Z,13.30
2019-04-05T03:35:41.228Z,13.90
2019-04-05T03:38:21.873Z,13.40
2019-04-05T03:41:02.640Z,12.90
2019-04-05T03:43:43.511Z,12.40
2019-04-05T03:46:24.294Z,12.20
2019-04-05T03:49:05.394Z,11.90
2019-04-05T03:52:13.895Z,12.00
2019-04-05T03:55:01.962Z,12.00
2019-04-05T03:57:49.810Z,11.90
2019-04-05T04:00:37.603Z,12.00
2019-04-05T04:03:25.497Z,12.30
2019-04-05T04:06:13.611Z,12.30
2019-04-05T04:09:01.502Z,12.50
2019-04-05T04:11:49.658Z,12.60
2019-04-05T04:14:37.719Z,12.30
2019-04-05T04:17:25.526Z,12.20
2019-04-05T04:20:32.625Z,12.10
2019-04-05T04:23:41.209Z,12.40
2019-04-05T04:26:09.925Z,12.20
2019-04-05T04:28:58.072Z,12.00
2019-04-05T04:31:45.834Z,12.30
2019-04-05T04:34:26.411Z,12.10
2019-04-05T04:37:07.486Z,12.00
2019-04-05T04:39:48.790Z,12.50
2019-04-05T04:42:29.935Z,12.50
2019-04-05T04:45:12.506Z,13.10
2019-04-05T04:47:53.954Z,13.50
2019-04-05T04:50:34.980Z,13.10
2019-04-05T04:53:15.866Z,12.90
2019-04-05T04:55:56.770Z,12.50
2019-04-05T04:58:37.454Z,11.90
2019-04-05T05:01:18.641Z,11.90
2019-04-05T05:03:59.458Z,12.10
2019-04-05T05:06:39.951Z,11.90
2019-04-05T05:09:20.538Z,12.00
2019-04-05T05:12:01.442Z,12.10
2019-04-05T05:14:42.170Z,12.40
2019-04-05T05:17:22.517Z,12.20
2019-04-05T05:20:03.384Z,12.30
2019-04-05T05:22:44.507Z,12.70
2019-04-05T05:25:53.008Z,12.20
2019-04-05T05:28:40.803Z,12.10
2019-04-05T05:31:28.583Z,12.20
2019-04-05T05:34:16.792Z,12.20
2019-04-05T05:37:04.759Z,11.90
2019-04-05T05:39:53.175Z,11.90
2019-04-05T05:42:41.301Z,12.40
2019-04-05T05:45:29.182Z,12.10
2019-04-05T05:48:17.381Z,11.80
2019-04-05T05:51:05.188Z,12.40
2019-04-05T05:53:33.620Z,12.70
2019-04-05T05:56:21.442Z,12.60
2019-04-05T05:59:02.600Z,12.70
2019-04-05T06:01:43.671Z,12.80
2019-04-05T06:04:24.472Z,13.30
2019-04-05T06:07:05.396Z,13.00
2019-04-05T06:09:33.882Z,12.40
2019-04-05T06:12:21.709Z,12.20
2019-04-05T06:15:09.560Z,12.20
2019-04-05T06:18:04.546Z,12.40
2019-04-05T06:20:46.871Z,12.70
2019-04-05T06:23:35.021Z,12.70
2019-04-05T06:26:22.805Z,12.30
2019-04-05T06:29:10.631Z,12.20
2019-04-05T06:31:58.481Z,12.30
2019-04-05T06:34:46.300Z,12.30
2019-04-05T06:37:27.642Z,12.20
2019-04-05T06:40:11.818Z,12.10
2019-04-05T06:42:52.511Z,11.90
2019-04-05T06:45:33.218Z,11.80
2019-04-05T06:48:19.502Z,12.00
2019-04-05T06:50:56.363Z,12.20
2019-04-05T06:53:37.224Z,12.30
2019-04-05T06:56:17.859Z,12.20
2019-04-05T06:58:58.525Z,12.50
2019-04-05T07:01:39.614Z,13.30
2019-04-05T07:04:08.059Z,13.50
2019-04-05T07:06:55.857Z,12.70
2019-04-05T07:09:43.652Z,12.20
2019-04-05T07:12:31.485Z,12.50
2019-04-05T07:15:19.727Z,12.20
2019-04-05T07:18:07.831Z,12.00
2019-04-05T07:20:57.931Z,12.20
2019-04-05T07:23:25.837Z,12.10
2019-04-05T07:26:13.996Z,12.20
2019-04-05T07:28:54.818Z,12.30
2019-04-05T07:31:35.776Z,12.50
2019-04-05T07:34:04.437Z,12.40
2019-04-05T07:36:52.258Z,12.20
2019-04-05T07:39:40.065Z,12.10
2019-04-05T07:42:27.833Z,12.00
2019-04-05T07:45:15.693Z,12.00
2019-04-05T07:48:03.538Z,12.10
2019-04-05T07:50:51.386Z,12.40
2019-04-05T07:53:39.291Z,12.40
2019-04-05T07:56:27.362Z,12.40
2019-04-05T07:59:15.173Z,12.60
2019-04-05T08:02:02.963Z,12.40
2019-04-05T08:04:31.654Z,12.40
2019-04-05T08:07:40.162Z,12.70
2019-04-05T08:10:27.948Z,12.50
2019-04-05T08:13:16.668Z,12.20
2019-04-05T08:16:04.509Z,12.10
2019-04-05T08:18:58.129Z,12.20
2019-04-05T08:21:42.093Z,12.20
2019-04-05T08:24:30.432Z,12.00
2019-04-05T08:27:18.234Z,12.20
2019-04-05T08:30:06.682Z,12.20
2019-04-05T08:32:54.526Z,12.00
2019-04-05T08:35:35.251Z,11.80
2019-04-05T08:38:03.868Z,11.90
2019-04-05T08:40:51.758Z,12.00
2019-04-05T08:43:39.560Z,12.10
2019-04-05T08:46:27.334Z,12.20
2019-04-05T08:49:15.381Z,12.20
2019-04-05T08:52:03.191Z,12.40
2019-04-05T08:54:51.362Z,12.10
2019-04-05T08:57:39.137Z,12.20
2019-04-05T09:00:26.949Z,12.40
2019-04-05T09:03:14.726Z,12.20
2019-04-05T09:06:02.513Z,12.40
2019-04-05T09:08:30.969Z,12.90
2019-04-05T09:11:11.713Z,12.50
2019-04-05T09:13:40.202Z,12.20
2019-04-05T09:16:27.981Z,12.50
2019-04-05T09:19:23.512Z,12.40
2019-04-05T09:22:05.373Z,12.30
2019-04-05T09:24:33.842Z,12.10
2019-04-05T09:27:21.970Z,12.10
2019-04-05T09:30:09.830Z,12.10
2019-04-05T09:32:57.627Z,12.20
2019-04-05T09:35:45.493Z,12.20
2019-04-05T09:41:21.033Z,11.90
2019-04-05T09:44:08.854Z,12.10
2019-04-05T09:46:56.702Z,12.30
2019-04-05T09:49:44.502Z,12.70
2019-04-05T09:52:32.302Z,13.10
2019-04-05T09:55:20.228Z,13.80
2019-04-05T09:58:10.102Z,12.90
2019-04-05T10:00:58.027Z,12.80
2019-04-05T10:03:45.880Z,12.70
2019-04-05T10:06:33.713Z,12.70
2019-04-05T10:09:21.553Z,12.70
2019-04-05T10:12:09.337Z,12.60
2019-04-05T10:14:57.149Z,12.70
2019-04-05T10:17:44.988Z,12.70
2019-04-05T10:20:32.821Z,12.70
2019-04-05T10:23:21.230Z,12.70
2019-04-05T10:26:09.005Z,12.60
2019-04-05T10:28:56.830Z,12.60
2019-04-05T10:31:44.839Z,12.40
2019-04-05T10:34:32.977Z,12.10
2019-04-05T10:37:13.986Z,12.10
2019-04-05T10:39:42.750Z,12.20
2019-04-05T10:42:51.262Z,12.30
2019-04-05T10:45:39.064Z,12.40
2019-04-05T10:48:27.136Z,12.50
2019-04-05T10:51:14.936Z,12.70
2019-04-05T10:54:02.706Z,13.00
2019-04-05T10:56:31.175Z,12.80
2019-04-05T10:59:19.207Z,12.80
2019-04-05T11:02:07.002Z,13.60
2019-04-05T11:04:54.797Z,13.60
2019-04-05T11:07:42.662Z,13.20
2019-04-05T11:10:30.472Z,13.00
2019-04-05T11:13:18.325Z,13.10
2019-04-05T11:16:06.137Z,13.50
2019-04-05T11:18:53.998Z,13.40
2019-04-05T11:21:41.764Z,13.20
2019-04-05T11:24:29.564Z,12.90
2019-04-05T11:26:57.993Z,12.70
2019-04-05T11:29:45.781Z,12.60
2019-04-05T11:32:33.590Z,12.60
2019-04-05T11:35:02.382Z,12.70
2019-04-05T11:37:43.377Z,12.80
2019-04-05T11:40:24.463Z,12.90
2019-04-05T11:43:06.114Z,13.00
2019-04-05T11:49:03.834Z,13.20
2019-04-05T11:51:52.886Z,13.10
2019-04-05T11:54:40.787Z,13.20
2019-04-05T11:57:28.616Z,12.90
2019-04-05T12:00:55.075Z,13.00
2019-04-05T12:04:03.715Z,13.00
2019-04-05T12:06:52.113Z,13.10
2019-04-05T12:09:41.405Z,13.30
2019-04-05T12:12:29.217Z,13.80
2019-04-05T12:15:16.991Z,13.60
2019-04-05T12:18:05.284Z,13.80
2019-04-05T12:20:47.312Z,13.60
2019-04-05T12:23:24.501Z,13.60
2019-04-05T12:26:12.303Z,13.70
2019-04-05T12:29:00.338Z,13.70
2019-04-05T12:36:59.551Z,13.90
2019-04-05T12:39:43.764Z,13.80
2019-04-05T12:42:24.306Z,13.90
2019-04-05T12:45:05.283Z,13.80
2019-04-05T12:47:34.073Z,13.80
2019-04-05T12:50:22.182Z,13.80
2019-04-05T12:53:10.023Z,13.80
2019-04-05T12:55:57.887Z,13.60
2019-04-05T12:58:45.694Z,13.70
2019-04-05T13:01:33.667Z,13.70
2019-04-05T13:04:21.592Z,13.70
2019-04-05T13:07:09.589Z,13.80
2019-04-05T13:09:57.678Z,13.40
2019-04-05T13:13:04.979Z,13.30
2019-04-05T13:15:53.208Z,13.50
2019-04-05T13:21:49.772Z,13.60
2019-04-05T13:28:13.289Z,13.60
2019-04-05T13:30:35.746Z,13.60
2019-04-05T13:33:24.051Z,13.30
2019-04-05T13:36:13.234Z,13.50
2019-04-05T13:39:01.309Z,13.60
2019-04-05T13:41:42.455Z,13.60
2019-04-05T13:44:11.487Z,13.60
2019-04-05T13:46:59.262Z,13.30
2019-04-05T13:49:47.166Z,13.30
2019-04-05T13:58:46.132Z,13.40
2019-04-05T14:01:50.754Z,13.40
2019-04-05T14:04:23.439Z,13.40
2019-04-05T14:06:56.861Z,13.40
2019-04-05T14:09:34.663Z,13.40
2019-04-05T14:12:35.473Z,13.40
2019-04-05T14:15:23.997Z,13.40
2019-04-05T14:18:16.691Z,13.20
2019-04-05T14:20:49.672Z,13.40
2019-04-05T14:23:47.928Z,13.40
2019-04-05T14:25:48.688Z,13.40
2019-04-05T14:28:21.359Z,13.30
2019-04-05T14:31:04.163Z,13.30
2019-04-05T14:33:24.413Z,13.40
2019-04-05T14:35:54.390Z,13.30
2019-04-05T14:38:31.041Z,13.40
2019-04-05T14:41:12.789Z,13.30
2019-04-05T14:44:00.689Z,13.30
2019-04-05T14:49:48.398Z,13.50
2019-04-05T14:52:39.869Z,13.60
2019-04-05T14:55:11.633Z,13.40
2019-04-05T14:57:40.975Z,13.40
2019-04-05T15:00:14.825Z,13.30
2019-04-05T15:02:51.229Z,13.40
2019-04-05T15:05:20.023Z,13.40
2019-04-05T15:08:04.534Z,13.40
2019-04-05T15:10:21.064Z,13.30
2019-04-05T15:12:53.611Z,13.50
2019-04-05T15:15:22.505Z,13.40
2019-04-05T15:17:51.690Z,13.30
2019-04-05T15:20:40.157Z,13.30
2019-04-05T15:23:14.074Z,13.40
2019-04-05T15:25:44.516Z,13.40
2019-04-05T15:28:13.697Z,13.30
2019-04-05T15:30:49.449Z,13.40
2019-04-05T15:36:12.340Z,13.40
2019-04-05T15:38:42.951Z,13.40
2019-04-05T15:41:12.858Z,13.40
2019-04-05T15:43:45.758Z,13.40
2019-04-05T15:49:17.142Z,13.50
2019-04-05T15:51:47.924Z,13.50
2019-04-05T15:54:17.501Z,13.40
2019-04-05T15:56:46.206Z,13.30
2019-04-05T15:59:15.025Z,13.30
2019-04-05T16:02:03.912Z,13.30
2019-04-05T16:04:52.434Z,13.30
2019-04-05T16:07:21.835Z,13.30
2019-04-05T16:10:31.285Z,13.30
2019-04-05T16:16:06.818Z,13.30
2019-04-05T16:18:58.083Z,13.20
2019-04-05T16:21:25.504Z,13.30
2019-04-05T16:23:54.265Z,13.30
2019-04-05T16:26:42.534Z,13.30
2019-04-05T16:29:30.863Z,13.20
2019-04-05T16:32:18.826Z,13.20
2019-04-05T16:35:06.830Z,13.30
2019-04-05T16:37:54.871Z,13.20
2019-04-05T16:40:24.717Z,13.20
2019-04-05T16:43:12.992Z,13.20
2019-04-05T16:46:22.352Z,13.20
2019-04-05T16:49:03.032Z,13.10
2019-04-05T16:51:40.654Z,13.20
2019-04-05T16:54:28.547Z,13.10
2019-04-05T16:57:16.495Z,12.90
2019-04-05T16:59:45.125Z,13.10
2019-04-05T17:02:53.768Z,13.20
2019-04-05T17:05:41.672Z,13.20
2019-04-05T17:08:45.457Z,13.10
2019-04-05T17:11:19.271Z,13.10
2019-04-05T17:14:07.321Z,13.30
2019-04-05T17:16:55.396Z,13.20
2019-04-05T17:22:57.997Z,13.30
2019-04-05T17:25:41.290Z,13.10
2019-04-05T17:28:29.117Z,13.20
2019-04-05T17:31:17.006Z,13.10
2019-04-05T17:34:04.956Z,13.00
2019-04-05T17:36:33.412Z,13.10
2019-04-05T17:39:14.453Z,13.00
2019-04-05T17:41:55.678Z,12.80
2019-04-05T17:44:36.257Z,12.60
2019-04-05T17:47:17.406Z,12.80
2019-04-05T17:49:58.166Z,12.90
2019-04-05T17:52:38.841Z,12.80
2019-04-05T17:55:19.930Z,13.00
2019-04-05T17:58:00.647Z,13.00
2019-04-05T18:00:41.748Z,13.00
2019-04-05T18:03:10.319Z,13.00
2019-04-05T18:05:58.139Z,12.70
2019-04-05T18:08:45.974Z,12.60
2019-04-05T18:11:33.838Z,12.60
2019-04-05T18:14:02.275Z,12.90
2019-04-05T18:16:31.095Z,13.00
2019-04-05T18:19:18.941Z,12.70
2019-04-05T18:24:54.233Z,12.40
2019-04-05T18:27:35.231Z,12.50
2019-04-05T18:30:24.838Z,12.40
2019-04-05T18:33:12.639Z,12.40
2019-04-05T18:36:00.431Z,12.50
2019-04-05T18:38:48.226Z,12.60
2019-04-05T18:41:29.413Z,12.70
2019-04-05T18:44:10.613Z,12.80
2019-04-05T18:46:51.417Z,12.80
2019-04-05T18:49:32.318Z,12.90
2019-04-05T18:52:13.451Z,12.80
2019-04-05T18:54:54.342Z,12.70
2019-04-05T18:57:35.421Z,12.80
2019-04-05T19:00:24.777Z,12.90
2019-04-05T19:03:12.875Z,12.80
2019-04-05T19:06:00.655Z,12.90
2019-04-05T19:08:48.446Z,12.90
2019-04-05T19:11:28.706Z,13.00
2019-04-05T19:14:09.398Z,13.00
2019-04-05T19:16:50.382Z,13.00
2019-04-05T19:19:31.251Z,12.90
2019-04-05T19:22:12.212Z,12.80
2019-04-05T19:24:53.433Z,12.70
2019-04-05T19:27:24.258Z,12.70
2019-04-05T19:49:39.698Z,11.90
2019-04-05T19:52:27.550Z,12.20
2019-04-05T19:55:15.350Z,12.60
2019-04-05T19:58:03.207Z,12.70
2019-04-05T20:00:51.068Z,12.70
2019-04-05T20:03:38.853Z,12.80
2019-04-05T20:06:26.716Z,12.60
2019-04-05T20:09:14.555Z,12.20
2019-04-05T20:12:02.485Z,12.10
2019-04-05T20:14:50.651Z,12.30
2019-04-05T20:17:38.911Z,12.60
2019-04-05T20:20:47.483Z,12.70
2019-04-05T20:23:35.558Z,12.70
2019-04-05T20:26:04.163Z,12.80
2019-04-05T20:28:52.080Z,12.80
2019-04-05T20:31:39.928Z,12.70
2019-04-05T20:34:27.724Z,12.50
2019-04-05T20:37:15.548Z,12.70
2019-04-05T20:40:24.168Z,12.80
2019-04-05T20:43:04.787Z,12.40
2019-04-05T20:45:45.572Z,12.30
2019-04-05T20:48:26.711Z,12.20
2019-04-05T20:51:08.062Z,12.00
2019-04-05T20:53:49.333Z,12.00
2019-04-05T20:56:17.792Z,11.90
2019-04-05T20:59:05.743Z,12.10
2019-04-05T21:01:34.423Z,12.30
2019-04-05T21:04:22.439Z,12.30
2019-04-05T21:07:10.681Z,12.50
2019-04-05T21:09:58.592Z,12.50
2019-04-05T21:12:46.568Z,12.40
2019-04-05T21:15:35.547Z,12.40
2019-04-05T21:18:04.190Z,12.50
2019-04-05T21:20:52.085Z,12.60
2019-04-05T21:23:40.302Z,12.60
2019-04-05T21:26:28.327Z,12.60
2019-04-05T21:29:16.198Z,12.60
2019-04-05T21:32:04.083Z,12.50
2019-04-05T21:34:52.066Z,12.50
2019-04-05T21:37:20.509Z,12.50
2019-04-05T21:40:08.633Z,12.50
2019-04-05T21:42:49.586Z,12.50
2019-04-05T21:45:30.427Z,12.40
2019-04-05T21:48:11.800Z,12.50
2019-04-05T21:50:52.743Z,12.50
2019-04-05T21:53:33.624Z,12.40
2019-04-05T21:56:14.686Z,12.40
2019-04-05T21:58:55.763Z,12.40
2019-04-05T22:01:36.275Z,12.40
2019-04-05T22:04:17.411Z,12.50
2019-04-05T22:06:58.639Z,12.50
2019-04-05T22:09:27.116Z,12.50
2019-04-05T22:12:15.348Z,12.50
2019-04-05T22:15:03.354Z,12.50
2019-04-05T22:17:32.262Z,12.60
2019-04-05T22:20:20.068Z,12.60
2019-04-05T22:23:08.326Z,12.60
2019-04-05T22:25:56.132Z,12.50
2019-04-05T22:28:43.951Z,12.50
2019-04-05T22:31:31.989Z,12.60
2019-04-05T22:34:19.831Z,12.50
2019-04-05T22:37:07.688Z,12.50
2019-04-05T22:39:55.470Z,12.50
2019-04-05T22:42:43.611Z,12.40
2019-04-05T22:45:31.405Z,12.30
2019-04-05T22:48:19.218Z,12.30
2019-04-05T22:51:07.085Z,12.40
2019-04-05T22:53:55.254Z,12.30
2019-04-05T22:56:35.518Z,12.40
2019-04-05T22:59:04.105Z,12.30
2019-04-05T23:01:51.932Z,12.30
2019-04-05T23:04:39.837Z,12.30
2019-04-05T23:10:28.551Z,12.40
2019-04-05T23:16:03.996Z,12.20
2019-04-05T23:18:51.829Z,12.30
2019-04-05T23:21:39.714Z,12.20
2019-04-05T23:24:27.928Z,12.30
2019-04-05T23:27:15.769Z,12.10
2019-04-05T23:30:04.802Z,12.20
2019-04-05T23:32:52.689Z,12.20
2019-04-05T23:35:40.543Z,12.20
2019-04-05T23:38:28.634Z,12.30
2019-04-05T23:41:16.798Z,12.10
2019-04-05T23:44:04.658Z,12.10
2019-04-05T23:46:52.760Z,12.20
2019-04-05T23:49:42.068Z,12.30
2019-04-05T23:52:29.902Z,12.30
2019-04-05T23:55:17.749Z,12.30
2019-04-05T23:58:05.544Z,12.40
